sensor_id;sensor_type;location;lat;lon;timestamp;pressure;altitude;pressure_sealevel;temperature;humidity
29433;BME280;16405;53.964;13.448;2022-12-29T00:00:10;99984.72;;;6.34;100.00
29433;BME280;16405;53.964;13.448;2022-12-29T00:02:40;99987.22;;;6.37;100.00
29433;BME280;16405;53.964;13.448;2022-12-29T00:05:07;99979.31;;;6.39;100.00
29433;BME280;16405;53.964;13.448;2022-12-29T00:07:32;99972.19;;;6.42;100.00
29433;BME280;16405;53.964;13.448;2022-12-29T00:09:58;99978.28;;;6.43;100.00
29433;BME280;16405;53.964;13.448;2022-12-29T00:12:24;99970.31;;;6.46;100.00
29433;BME280;16405;53.964;13.448;2022-12-29T00:15:12;99969.38;;;6.47;100.00
29433;BME280;16405;53.964;13.448;2022-12-29T00:17:57;99965.00;;;6.47;100.00
29433;BME280;16405;53.964;13.448;2022-12-29T00:20:23;99952.06;;;6.44;100.00
29433;BME280;16405;53.964;13.448;2022-12-29T00:23:44;99957.34;;;6.43;100.00
29433;BME280;16405;53.964;13.448;2022-12-29T00:26:29;99953.94;;;6.41;100.00
29433;BME280;16405;53.964;13.448;2022-12-29T00:29:08;99944.34;;;6.41;100.00
29433;BME280;16405;53.964;13.448;2022-12-29T00:31:52;99933.19;;;6.38;100.00
29433;BME280;16405;53.964;13.448;2022-12-29T00:34:41;99945.06;;;6.45;100.00
29433;BME280;16405;53.964;13.448;2022-12-29T00:37:25;99941.66;;;6.43;100.00
29433;BME280;16405;53.964;13.448;2022-12-29T00:40:16;99933.75;;;6.44;100.00
29433;BME280;16405;53.964;13.448;2022-12-29T00:43:01;99937.16;;;6.46;100.00
29433;BME280;16405;53.964;13.448;2022-12-29T00:45:45;99927.81;;;6.41;100.00
29433;BME280;16405;53.964;13.448;2022-12-29T00:48:19;99921.47;;;6.46;100.00
29433;BME280;16405;53.964;13.448;2022-12-29T00:51:05;99927.59;;;6.45;100.00
29433;BME280;16405;53.964;13.448;2022-12-29T00:53:31;99919.16;;;6.39;100.00
29433;BME280;16405;53.964;13.448;2022-12-29T00:56:01;99913.69;;;6.45;100.00
29433;BME280;16405;53.964;13.448;2022-12-29T00:58:31;99905.59;;;6.51;100.00
29433;BME280;16405;53.964;13.448;2022-12-29T01:01:07;99910.66;;;6.54;100.00
29433;BME280;16405;53.964;13.448;2022-12-29T01:03:37;99906.22;;;6.56;100.00
29433;BME280;16405;53.964;13.448;2022-12-29T01:06:09;99902.75;;;6.55;100.00
29433;BME280;16405;53.964;13.448;2022-12-29T01:08:35;99898.56;;;6.51;100.00
29433;BME280;16405;53.964;13.448;2022-12-29T01:11:11;99894.84;;;6.57;100.00
29433;BME280;16405;53.964;13.448;2022-12-29T01:13:39;99889.03;;;6.50;100.00
29433;BME280;16405;53.964;13.448;2022-12-29T01:16:08;99890.69;;;6.53;100.00
29433;BME280;16405;53.964;13.448;2022-12-29T01:18:33;99892.34;;;6.54;100.00
29433;BME280;16405;53.964;13.448;2022-12-29T01:21:07;99887.13;;;6.54;100.00
29433;BME280;16405;53.964;13.448;2022-12-29T01:23:33;99891.31;;;6.58;100.00
29433;BME280;16405;53.964;13.448;2022-12-29T01:26:10;99887.72;;;6.61;100.00
29433;BME280;16405;53.964;13.448;2022-12-29T01:28:36;99878.22;;;6.58;100.00
29433;BME280;16405;53.964;13.448;2022-12-29T01:31:04;99879.16;;;6.57;100.00
29433;BME280;16405;53.964;13.448;2022-12-29T01:33:33;99867.00;;;6.56;100.00
29433;BME280;16405;53.964;13.448;2022-12-29T01:36:04;99879.94;;;6.59;100.00
29433;BME280;16405;53.964;13.448;2022-12-29T01:38:31;99878.22;;;6.58;100.00
29433;BME280;16405;53.964;13.448;2022-12-29T01:40:57;99873.16;;;6.55;100.00
29433;BME280;16405;53.964;13.448;2022-12-29T01:43:46;99872.38;;;6.53;100.00
29433;BME280;16405;53.964;13.448;2022-12-29T01:51:39;99860.97;;;6.54;100.00
29433;BME280;16405;53.964;13.448;2022-12-29T01:54:24;99857.56;;;6.52;100.00
29433;BME280;16405;53.964;13.448;2022-12-29T01:56:55;99854.06;;;6.53;100.00
29433;BME280;16405;53.964;13.448;2022-12-29T01:59:28;99851.38;;;6.54;100.00
29433;BME280;16405;53.964;13.448;2022-12-29T02:01:55;99845.38;;;6.52;100.00
29433;BME280;16405;53.964;13.448;2022-12-29T02:04:23;99846.91;;;6.56;100.00
29433;BME280;16405;53.964;13.448;2022-12-29T02:06:58;99846.06;;;6.56;100.00
29433;BME280;16405;53.964;13.448;2022-12-29T02:09:26;99842.03;;;6.49;100.00
29433;BME280;16405;53.964;13.448;2022-12-29T02:11:52;99838.47;;;6.50;100.00
29433;BME280;16405;53.964;13.448;2022-12-29T02:14:18;99829.59;;;6.54;100.00
29433;BME280;16405;53.964;13.448;2022-12-29T02:34:14;99815.47;;;6.58;100.00
29433;BME280;16405;53.964;13.448;2022-12-29T02:37:11;99824.03;;;6.62;100.00
29433;BME280;16405;53.964;13.448;2022-12-29T02:40:03;99818.75;;;6.63;100.00
29433;BME280;16405;53.964;13.448;2022-12-29T02:51:00;99810.81;;;6.65;100.00
29433;BME280;16405;53.964;13.448;2022-12-29T02:53:29;99807.34;;;6.64;100.00
29433;BME280;16405;53.964;13.448;2022-12-29T02:56:17;99811.59;;;6.67;100.00
29433;BME280;16405;53.964;13.448;2022-12-29T02:58:43;99805.44;;;6.68;100.00
29433;BME280;16405;53.964;13.448;2022-12-29T03:12:49;99819.88;;;6.76;100.00
29433;BME280;16405;53.964;13.448;2022-12-29T03:16:07;99812.16;;;6.73;100.00
29433;BME280;16405;53.964;13.448;2022-12-29T03:19:16;99822.41;;;6.78;100.00
29433;BME280;16405;53.964;13.448;2022-12-29T03:22:12;99791.16;;;6.75;100.00
29433;BME280;16405;53.964;13.448;2022-12-29T03:25:08;99803.53;;;6.71;100.00
29433;BME280;16405;53.964;13.448;2022-12-29T03:27:43;99786.00;;;6.73;100.00
29433;BME280;16405;53.964;13.448;2022-12-29T03:30:10;99779.84;;;6.74;100.00
29433;BME280;16405;53.964;13.448;2022-12-29T03:32:54;99784.94;;;6.77;100.00
29433;BME280;16405;53.964;13.448;2022-12-29T03:35:24;99779.84;;;6.74;100.00
29433;BME280;16405;53.964;13.448;2022-12-29T03:38:15;99779.84;;;6.74;100.00
29433;BME280;16405;53.964;13.448;2022-12-29T03:40:51;99779.84;;;6.74;100.00
29433;BME280;16405;53.964;13.448;2022-12-29T03:43:18;99788.53;;;6.75;100.00
29433;BME280;16405;53.964;13.448;2022-12-29T03:45:44;99771.78;;;6.79;100.00
29433;BME280;16405;53.964;13.448;2022-12-29T03:48:10;99765.56;;;6.82;100.00
29433;BME280;16405;53.964;13.448;2022-12-29T03:50:38;99761.88;;;6.86;100.00
29433;BME280;16405;53.964;13.448;2022-12-29T03:53:07;99748.88;;;6.84;100.00
29433;BME280;16405;53.964;13.448;2022-12-29T03:55:33;99757.59;;;6.85;100.00
29433;BME280;16405;53.964;13.448;2022-12-29T03:57:59;99753.41;;;6.81;100.00
29433;BME280;16405;53.964;13.448;2022-12-29T04:00:24;99747.53;;;6.75;100.00
29433;BME280;16405;53.964;13.448;2022-12-29T04:02:58;99748.59;;;6.71;100.00
29433;BME280;16405;53.964;13.448;2022-12-29T04:05:24;99745.28;;;6.68;100.00
29433;BME280;16405;53.964;13.448;2022-12-29T04:07:49;99736.72;;;6.64;100.00
29433;BME280;16405;53.964;13.448;2022-12-29T04:10:15;99738.72;;;6.59;100.00
29433;BME280;16405;53.964;13.448;2022-12-29T04:12:41;99737.00;;;6.58;100.00
29433;BME280;16405;53.964;13.448;2022-12-29T04:15:13;99748.44;;;6.55;100.00
29433;BME280;16405;53.964;13.448;2022-12-29T04:17:39;99746.75;;;6.54;100.00
29433;BME280;16405;53.964;13.448;2022-12-29T04:20:06;99742.00;;;6.63;100.00
29433;BME280;16405;53.964;13.448;2022-12-29T04:23:01;99726.09;;;6.67;100.00
29433;BME280;16405;53.964;13.448;2022-12-29T04:25:27;99722.34;;;6.73;100.00
29433;BME280;16405;53.964;13.448;2022-12-29T04:27:52;99735.44;;;6.73;100.00
29433;BME280;16405;53.964;13.448;2022-12-29T04:30:18;99727.59;;;6.73;100.00
29433;BME280;16405;53.964;13.448;2022-12-29T04:32:49;99720.47;;;6.76;100.00
29433;BME280;16405;53.964;13.448;2022-12-29T04:35:15;99719.41;;;6.81;100.00
29433;BME280;16405;53.964;13.448;2022-12-29T04:37:41;99721.06;;;6.82;100.00
29433;BME280;16405;53.964;13.448;2022-12-29T04:40:08;99726.25;;;6.83;100.00
29433;BME280;16405;53.964;13.448;2022-12-29T04:42:34;99724.25;;;6.88;100.00
29433;BME280;16405;53.964;13.448;2022-12-29T04:45:02;99720.50;;;6.94;100.00
29433;BME280;16405;53.964;13.448;2022-12-29T04:47:31;99716.81;;;6.98;100.00
29433;BME280;16405;53.964;13.448;2022-12-29T04:49:57;99712.44;;;6.98;100.00
29433;BME280;16405;53.964;13.448;2022-12-29T04:52:22;99706.25;;;6.99;100.00
29433;BME280;16405;53.964;13.448;2022-12-29T04:54:48;99718.50;;;6.99;100.00
29433;BME280;16405;53.964;13.448;2022-12-29T04:57:14;99724.69;;;6.98;100.00
29433;BME280;16405;53.964;13.448;2022-12-29T04:59:42;99717.59;;;7.00;100.00
29433;BME280;16405;53.964;13.448;2022-12-29T05:02:08;99715.75;;;7.02;100.00
29433;BME280;16405;53.964;13.448;2022-12-29T05:04:33;99717.44;;;7.03;100.00
29433;BME280;16405;53.964;13.448;2022-12-29T05:06:59;99708.69;;;7.04;100.00
29433;BME280;16405;53.964;13.448;2022-12-29T05:09:25;99697.50;;;7.01;100.00
29433;BME280;16405;53.964;13.448;2022-12-29T05:11:51;99697.56;;;6.99;100.00
29433;BME280;16405;53.964;13.448;2022-12-29T05:14:16;99702.19;;;6.94;100.00
29433;BME280;16405;53.964;13.448;2022-12-29T05:16:42;99698.50;;;6.98;100.00
29433;BME280;16405;53.964;13.448;2022-12-29T05:19:15;99694.28;;;6.95;100.00
29433;BME280;16405;53.964;13.448;2022-12-29T05:21:42;99702.88;;;6.97;100.00
29433;BME280;16405;53.964;13.448;2022-12-29T05:24:08;99699.34;;;6.98;100.00
29433;BME280;16405;53.964;13.448;2022-12-29T05:26:34;99700.06;;;7.02;100.00
29433;BME280;16405;53.964;13.448;2022-12-29T05:29:05;99696.50;;;7.03;100.00
29433;BME280;16405;53.964;13.448;2022-12-29T05:31:31;99696.38;;;7.06;100.00
29433;BME280;16405;53.964;13.448;2022-12-29T05:33:57;99692.75;;;7.09;100.00
29433;BME280;16405;53.964;13.448;2022-12-29T05:36:23;99687.41;;;7.10;100.00
29433;BME280;16405;53.964;13.448;2022-12-29T05:38:49;99684.59;;;7.15;100.00
29433;BME280;16405;53.964;13.448;2022-12-29T05:41:16;99697.59;;;7.16;100.00
29433;BME280;16405;53.964;13.448;2022-12-29T05:43:46;99681.88;;;7.16;100.00
29433;BME280;16405;53.964;13.448;2022-12-29T05:46:12;99691.28;;;7.21;100.00
29433;BME280;16405;53.964;13.448;2022-12-29T05:48:37;99691.06;;;7.25;100.00
29433;BME280;16405;53.964;13.448;2022-12-29T05:51:04;99687.59;;;7.25;100.00
29433;BME280;16405;53.964;13.448;2022-12-29T05:53:29;99686.53;;;7.29;100.00
29433;BME280;16405;53.964;13.448;2022-12-29T05:55:55;99688.31;;;7.28;100.00
29433;BME280;16405;53.964;13.448;2022-12-29T05:58:24;99689.91;;;7.31;100.00
29433;BME280;16405;53.964;13.448;2022-12-29T06:00:49;99675.88;;;7.32;100.00
29433;BME280;16405;53.964;13.448;2022-12-29T06:03:16;99673.28;;;7.32;100.00
29433;BME280;16405;53.964;13.448;2022-12-29T06:05:41;99672.38;;;7.33;100.00
29433;BME280;16405;53.964;13.448;2022-12-29T06:08:07;99669.75;;;7.33;100.00
29433;BME280;16405;53.964;13.448;2022-12-29T06:10:33;99669.75;;;7.33;100.00
29433;BME280;16405;53.964;13.448;2022-12-29T06:13:01;99672.38;;;7.33;100.00
29433;BME280;16405;53.964;13.448;2022-12-29T06:15:35;99658.31;;;7.34;100.00
29433;BME280;16405;53.964;13.448;2022-12-29T06:18:01;99668.72;;;7.35;100.00
29433;BME280;16405;53.964;13.448;2022-12-29T06:20:26;99672.19;;;7.36;100.00
29433;BME280;16405;53.964;13.448;2022-12-29T06:22:52;99665.03;;;7.39;100.00
29433;BME280;16405;53.964;13.448;2022-12-29T06:25:21;99669.34;;;7.40;100.00
29433;BME280;16405;53.964;13.448;2022-12-29T06:27:46;99685.94;;;7.41;100.00
29433;BME280;16405;53.964;13.448;2022-12-29T06:30:12;99676.00;;;7.48;100.00
29433;BME280;16405;53.964;13.448;2022-12-29T06:32:39;99681.06;;;7.51;100.00
29433;BME280;16405;53.964;13.448;2022-12-29T06:35:05;99667.06;;;7.52;100.00
29433;BME280;16405;53.964;13.448;2022-12-29T06:37:32;99673.97;;;7.53;100.00
29433;BME280;16405;53.964;13.448;2022-12-29T06:40:00;99666.09;;;7.53;100.00
29433;BME280;16405;53.964;13.448;2022-12-29T06:42:26;99664.25;;;7.55;100.00
29433;BME280;16405;53.964;13.448;2022-12-29T06:44:52;99666.72;;;7.58;100.00
29433;BME280;16405;53.964;13.448;2022-12-29T06:47:18;99659.84;;;7.55;100.00
29433;BME280;16405;53.964;13.448;2022-12-29T06:49:44;99657.34;;;7.54;100.00
29433;BME280;16405;53.964;13.448;2022-12-29T06:52:10;99654.78;;;7.52;100.00
29433;BME280;16405;53.964;13.448;2022-12-29T06:54:36;99651.16;;;7.55;100.00
29433;BME280;16405;53.964;13.448;2022-12-29T06:57:04;99661.47;;;7.58;100.00
29433;BME280;16405;53.964;13.448;2022-12-29T06:59:30;99670.97;;;7.60;100.00
29433;BME280;16405;53.964;13.448;2022-12-29T07:01:56;99671.03;;;7.59;100.00
29433;BME280;16405;53.964;13.448;2022-12-29T07:04:21;99664.97;;;7.58;100.00
29433;BME280;16405;53.964;13.448;2022-12-29T07:06:47;99666.50;;;7.63;100.00
29433;BME280;16405;53.964;13.448;2022-12-29T07:09:13;99669.91;;;7.65;100.00
29433;BME280;16405;53.964;13.448;2022-12-29T07:11:39;99661.25;;;7.63;100.00
29433;BME280;16405;53.964;13.448;2022-12-29T07:14:05;99662.94;;;7.64;100.00
29433;BME280;16405;53.964;13.448;2022-12-29T07:16:33;99662.94;;;7.64;100.00
29433;BME280;16405;53.964;13.448;2022-12-29T07:18:59;99659.47;;;7.63;100.00
29433;BME280;16405;53.964;13.448;2022-12-29T07:21:25;99658.47;;;7.66;100.00
29433;BME280;16405;53.964;13.448;2022-12-29T07:23:51;99660.19;;;7.67;100.00
29433;BME280;16405;53.964;13.448;2022-12-29T07:26:17;99656.78;;;7.65;100.00
29433;BME280;16405;53.964;13.448;2022-12-29T07:28:46;99657.69;;;7.64;100.00
29433;BME280;16405;53.964;13.448;2022-12-29T07:31:17;99648.84;;;7.66;100.00
29433;BME280;16405;53.964;13.448;2022-12-29T07:33:44;99648.69;;;7.69;100.00
29433;BME280;16405;53.964;13.448;2022-12-29T07:36:17;99648.53;;;7.72;100.00
29433;BME280;16405;53.964;13.448;2022-12-29T07:38:43;99652.16;;;7.70;100.00
29433;BME280;16405;53.964;13.448;2022-12-29T07:41:09;99653.00;;;7.70;100.00
29433;BME280;16405;53.964;13.448;2022-12-29T07:43:35;99643.44;;;7.69;100.00
29433;BME280;16405;53.964;13.448;2022-12-29T07:46:01;99658.94;;;7.74;100.00
29433;BME280;16405;53.964;13.448;2022-12-29T07:48:30;99651.97;;;7.73;100.00
29433;BME280;16405;53.964;13.448;2022-12-29T07:50:59;99654.59;;;7.73;100.00
29433;BME280;16405;53.964;13.448;2022-12-29T07:53:24;99652.69;;;7.76;100.00
29433;BME280;16405;53.964;13.448;2022-12-29T07:55:50;99645.75;;;7.75;100.00
29433;BME280;16405;53.964;13.448;2022-12-29T07:58:16;99636.88;;;7.78;100.00
29433;BME280;16405;53.964;13.448;2022-12-29T08:00:42;99644.81;;;7.76;100.00
29433;BME280;16405;53.964;13.448;2022-12-29T08:03:10;99647.25;;;7.79;100.00
29433;BME280;16405;53.964;13.448;2022-12-29T08:05:36;99650.06;;;7.76;100.00
29433;BME280;16405;53.964;13.448;2022-12-29T08:08:05;99647.38;;;7.78;100.00
29433;BME280;16405;53.964;13.448;2022-12-29T08:10:31;99637.72;;;7.78;100.00
29433;BME280;16405;53.964;13.448;2022-12-29T08:12:57;99640.78;;;7.87;100.00
29433;BME280;16405;53.964;13.448;2022-12-29T08:15:31;99631.16;;;7.87;100.00
29433;BME280;16405;53.964;13.448;2022-12-29T08:18:00;99636.38;;;7.87;100.00
29433;BME280;16405;53.964;13.448;2022-12-29T08:20:26;99635.56;;;7.87;100.00
29433;BME280;16405;53.964;13.448;2022-12-29T08:22:58;99633.84;;;7.86;100.00
29433;BME280;16405;53.964;13.448;2022-12-29T08:25:30;99636.56;;;7.84;100.00
29433;BME280;16405;53.964;13.448;2022-12-29T08:27:59;99652.38;;;7.83;100.00
29433;BME280;16405;53.964;13.448;2022-12-29T08:30:28;99629.63;;;7.83;100.00
29433;BME280;16405;53.964;13.448;2022-12-29T08:32:56;99634.53;;;7.89;100.00
29433;BME280;16405;53.964;13.448;2022-12-29T08:35:22;99643.75;;;7.96;100.00
29433;BME280;16405;53.964;13.448;2022-12-29T08:37:53;99652.06;;;8.05;100.00
29433;BME280;16405;53.964;13.448;2022-12-29T08:40:21;99649.19;;;8.09;100.00
29433;BME280;16405;53.964;13.448;2022-12-29T08:42:47;99653.34;;;8.13;100.00
29433;BME280;16405;53.964;13.448;2022-12-29T08:45:19;99637.13;;;8.22;100.00
29433;BME280;16405;53.964;13.448;2022-12-29T08:47:47;99642.72;;;8.32;100.00
29433;BME280;16405;53.964;13.448;2022-12-29T08:50:13;99640.56;;;8.40;100.00
29433;BME280;16405;53.964;13.448;2022-12-29T08:52:42;99645.13;;;8.53;100.00
29433;BME280;16405;53.964;13.448;2022-12-29T08:55:08;99637.00;;;8.57;100.00
29433;BME280;16405;53.964;13.448;2022-12-29T08:57:41;99638.69;;;8.58;100.00
29433;BME280;16405;53.964;13.448;2022-12-29T09:00:11;99640.28;;;8.61;100.00
29433;BME280;16405;53.964;13.448;2022-12-29T09:02:40;99633.03;;;8.66;100.00
29433;BME280;16405;53.964;13.448;2022-12-29T09:05:09;99630.22;;;8.69;100.00
29433;BME280;16405;53.964;13.448;2022-12-29T09:07:35;99636.22;;;8.71;100.00
29433;BME280;16405;53.964;13.448;2022-12-29T09:10:02;99637.16;;;8.70;100.00
29433;BME280;16405;53.964;13.448;2022-12-29T09:12:34;99649.84;;;8.78;100.00
29433;BME280;16405;53.964;13.448;2022-12-29T09:15:04;99644.25;;;8.84;100.00
29433;BME280;16405;53.964;13.448;2022-12-29T09:17:38;99646.44;;;8.92;100.00
29433;BME280;16405;53.964;13.448;2022-12-29T09:20:21;99650.91;;;8.90;100.00
29433;BME280;16405;53.964;13.448;2022-12-29T09:22:47;99648.00;;;8.80;100.00
29433;BME280;16405;53.964;13.448;2022-12-29T09:25:14;99658.06;;;8.72;100.00
29433;BME280;16405;53.964;13.448;2022-12-29T09:27:40;99653.75;;;8.71;100.00
29433;BME280;16405;53.964;13.448;2022-12-29T09:30:10;99651.03;;;8.72;100.00
29433;BME280;16405;53.964;13.448;2022-12-29T09:32:42;99647.78;;;8.83;100.00
29433;BME280;16405;53.964;13.448;2022-12-29T09:35:14;99644.94;;;8.88;100.00
29433;BME280;16405;53.964;13.448;2022-12-29T09:37:43;99648.63;;;8.99;100.00
29433;BME280;16405;53.964;13.448;2022-12-29T09:40:30;99663.00;;;9.08;100.00
29433;BME280;16405;53.964;13.448;2022-12-29T09:46:41;99674.53;;;9.06;100.00
29433;BME280;16405;53.964;13.448;2022-12-29T09:51:51;99679.03;;;9.03;100.00
29433;BME280;16405;53.964;13.448;2022-12-29T09:54:55;99673.28;;;8.97;100.00
29433;BME280;16405;53.964;13.448;2022-12-29T10:01:00;99706.16;;;8.88;100.00
29433;BME280;16405;53.964;13.448;2022-12-29T10:03:52;99721.22;;;8.85;100.00
29433;BME280;16405;53.964;13.448;2022-12-29T10:06:47;99719.28;;;8.88;100.00
29433;BME280;16405;53.964;13.448;2022-12-29T10:10:15;99724.63;;;8.87;100.00
29433;BME280;16405;53.964;13.448;2022-12-29T10:24:06;99691.81;;;8.94;100.00
29433;BME280;16405;53.964;13.448;2022-12-29T10:26:44;99687.44;;;8.94;100.00
29433;BME280;16405;53.964;13.448;2022-12-29T10:29:28;99681.16;;;8.97;100.00
29433;BME280;16405;53.964;13.448;2022-12-29T10:32:13;99667.59;;;9.04;100.00
29433;BME280;16405;53.964;13.448;2022-12-29T10:34:50;99658.78;;;9.06;100.00
29433;BME280;16405;53.964;13.448;2022-12-29T10:43:51;99627.41;;;9.18;100.00
29433;BME280;16405;53.964;13.448;2022-12-29T10:46:36;99620.28;;;9.20;100.00
29433;BME280;16405;53.964;13.448;2022-12-29T10:49:08;99632.25;;;9.40;100.00
29433;BME280;16405;53.964;13.448;2022-12-29T10:51:47;99645.91;;;9.61;100.00
29433;BME280;16405;53.964;13.448;2022-12-29T10:54:58;99656.88;;;9.68;100.00
29433;BME280;16405;53.964;13.448;2022-12-29T10:57:42;99651.16;;;9.61;100.00
29433;BME280;16405;53.964;13.448;2022-12-29T11:00:20;99658.28;;;9.59;100.00
29433;BME280;16405;53.964;13.448;2022-12-29T11:06:45;99665.00;;;9.49;100.00
29433;BME280;16405;53.964;13.448;2022-12-29T11:09:28;99653.56;;;9.50;100.00
29433;BME280;16405;53.964;13.448;2022-12-29T11:11:58;99658.72;;;9.52;100.00
29433;BME280;16405;53.964;13.448;2022-12-29T11:14:30;99669.84;;;9.57;100.00
29433;BME280;16405;53.964;13.448;2022-12-29T11:17:04;99674.81;;;9.61;100.00
29433;BME280;16405;53.964;13.448;2022-12-29T11:19:39;99676.50;;;9.62;100.00
29433;BME280;16405;53.964;13.448;2022-12-29T11:22:28;99689.75;;;9.75;100.00
29433;BME280;16405;53.964;13.448;2022-12-29T11:25:04;99674.44;;;9.82;100.00
29433;BME280;16405;53.964;13.448;2022-12-29T11:27:36;99676.16;;;9.83;100.00
29433;BME280;16405;53.964;13.448;2022-12-29T11:30:28;99680.06;;;9.76;100.00
29433;BME280;16405;53.964;13.448;2022-12-29T11:32:56;99667.41;;;9.68;100.00
29433;BME280;16405;53.964;13.448;2022-12-29T11:35:33;99662.31;;;9.65;99.71
29433;BME280;16405;53.964;13.448;2022-12-29T11:38:00;99662.03;;;9.55;99.52
29433;BME280;16405;53.964;13.448;2022-12-29T11:40:27;99668.88;;;9.58;99.43
29433;BME280;16405;53.964;13.448;2022-12-29T11:43:01;99673.19;;;9.59;99.68
29433;BME280;16405;53.964;13.448;2022-12-29T11:45:35;99674.97;;;9.58;99.19
29433;BME280;16405;53.964;13.448;2022-12-29T11:48:10;99681.31;;;9.70;98.84
29433;BME280;16405;53.964;13.448;2022-12-29T11:50:48;99682.81;;;9.74;97.47
29433;BME280;16405;53.964;13.448;2022-12-29T11:53:24;99690.13;;;9.83;97.12
29433;BME280;16405;53.964;13.448;2022-12-29T11:56:04;99689.94;;;9.86;96.27
29433;BME280;16405;53.964;13.448;2022-12-29T11:58:34;99689.78;;;9.90;96.46
29433;BME280;16405;53.964;13.448;2022-12-29T12:01:21;99696.63;;;9.92;96.46
29433;BME280;16405;53.964;13.448;2022-12-29T12:04:18;99691.75;;;10.00;97.05
29433;BME280;16405;53.964;13.448;2022-12-29T12:09:57;99697.78;;;10.02;95.65
29433;BME280;16405;53.964;13.448;2022-12-29T12:12:41;99695.22;;;10.01;95.08
29433;BME280;16405;53.964;13.448;2022-12-29T12:15:34;99707.63;;;9.99;95.32
29433;BME280;16405;53.964;13.448;2022-12-29T12:18:11;99714.47;;;10.01;95.16
29433;BME280;16405;53.964;13.448;2022-12-29T12:26:17;99714.31;;;10.04;95.53
29433;BME280;16405;53.964;13.448;2022-12-29T12:28:59;99710.91;;;10.17;94.70
29433;BME280;16405;53.964;13.448;2022-12-29T12:31:57;99708.13;;;10.34;94.19
29433;BME280;16405;53.964;13.448;2022-12-29T12:34:39;99699.22;;;10.37;94.51
29433;BME280;16405;53.964;13.448;2022-12-29T12:50:08;99674.75;;;9.92;93.81
29433;BME280;16405;53.964;13.448;2022-12-29T12:53:05;99686.19;;;9.91;94.05
29433;BME280;16405;53.964;13.448;2022-12-29T12:58:41;99685.72;;;9.84;94.18
29433;BME280;16405;53.964;13.448;2022-12-29T13:05:07;99694.91;;;9.77;94.44
29433;BME280;16405;53.964;13.448;2022-12-29T13:16:28;99698.84;;;9.70;94.11
29433;BME280;16405;53.964;13.448;2022-12-29T13:19:33;99694.31;;;9.57;94.00
29433;BME280;16405;53.964;13.448;2022-12-29T13:25:50;99700.84;;;9.50;94.26
29433;BME280;16405;53.964;13.448;2022-12-29T13:32:21;99704.09;;;9.39;93.76
29433;BME280;16405;53.964;13.448;2022-12-29T13:38:03;99700.59;;;9.24;94.27
29433;BME280;16405;53.964;13.448;2022-12-29T13:40:41;99700.75;;;9.21;94.04
29433;BME280;16405;53.964;13.448;2022-12-29T13:43:13;99700.94;;;9.18;94.71
29433;BME280;16405;53.964;13.448;2022-12-29T13:45:42;99710.09;;;9.11;94.60
29433;BME280;16405;53.964;13.448;2022-12-29T13:48:25;99724.19;;;9.10;94.47
29433;BME280;16405;53.964;13.448;2022-12-29T13:50:59;99723.59;;;9.05;95.16
29433;BME280;16405;53.964;13.448;2022-12-29T13:54:29;99722.50;;;8.93;95.32
29433;BME280;16405;53.964;13.448;2022-12-29T13:57:44;99732.31;;;8.90;95.08
29433;BME280;16405;53.964;13.448;2022-12-29T14:00:23;99736.97;;;8.85;95.33
29433;BME280;16405;53.964;13.448;2022-12-29T14:05:30;99736.72;;;8.89;95.29
29433;BME280;16405;53.964;13.448;2022-12-29T14:08:02;99738.31;;;8.92;95.61
29433;BME280;16405;53.964;13.448;2022-12-29T14:10:37;99736.56;;;8.92;95.65
29433;BME280;16405;53.964;13.448;2022-12-29T14:13:30;99735.53;;;8.95;95.45
29433;BME280;16405;53.964;13.448;2022-12-29T14:16:00;99737.22;;;8.96;94.87
29433;BME280;16405;53.964;13.448;2022-12-29T14:18:30;99735.00;;;9.04;94.38
29433;BME280;16405;53.964;13.448;2022-12-29T14:21:21;99728.84;;;9.05;94.13
29433;BME280;16405;53.964;13.448;2022-12-29T14:23:53;99743.66;;;9.06;93.86
29433;BME280;16405;53.964;13.448;2022-12-29T14:31:54;99741.56;;;8.97;93.85
29433;BME280;16405;53.964;13.448;2022-12-29T14:39:39;99755.09;;;8.89;93.60
29433;BME280;16405;53.964;13.448;2022-12-29T14:44:57;99747.41;;;8.86;93.39
29433;BME280;16405;53.964;13.448;2022-12-29T14:47:38;99751.69;;;8.87;93.57
29433;BME280;16405;53.964;13.448;2022-12-29T14:50:41;99752.81;;;8.83;93.50
29433;BME280;16405;53.964;13.448;2022-12-29T14:53:50;99751.97;;;8.82;93.19
29433;BME280;16405;53.964;13.448;2022-12-29T14:56:25;99755.53;;;8.81;93.62
29433;BME280;16405;53.964;13.448;2022-12-29T14:59:01;99761.69;;;8.80;93.50
29433;BME280;16405;53.964;13.448;2022-12-29T15:01:47;99763.22;;;8.85;93.77
29433;BME280;16405;53.964;13.448;2022-12-29T15:04:31;99764.94;;;8.86;93.06
29433;BME280;16405;53.964;13.448;2022-12-29T15:10:15;99757.72;;;8.89;93.16
29433;BME280;16405;53.964;13.448;2022-12-29T15:13:13;99764.06;;;8.85;93.10
29433;BME280;16405;53.964;13.448;2022-12-29T15:16:03;99762.13;;;8.89;93.04
29433;BME280;16405;53.964;13.448;2022-12-29T15:18:32;99772.38;;;8.93;93.35
29433;BME280;16405;53.964;13.448;2022-12-29T15:21:05;99767.19;;;8.92;92.91
29433;BME280;16405;53.964;13.448;2022-12-29T15:23:35;99767.03;;;8.95;93.06
29433;BME280;16405;53.964;13.448;2022-12-29T15:26:10;99772.13;;;8.98;93.22
29433;BME280;16405;53.964;13.448;2022-12-29T15:28:45;99765.94;;;8.99;93.01
29433;BME280;16405;53.964;13.448;2022-12-29T15:33:52;99772.53;;;9.06;93.16
29433;BME280;16405;53.964;13.448;2022-12-29T15:36:27;99780.41;;;9.06;92.92
29433;BME280;16405;53.964;13.448;2022-12-29T15:38:56;99779.50;;;9.07;92.85
29433;BME280;16405;53.964;13.448;2022-12-29T15:41:55;99772.53;;;9.06;92.76
29433;BME280;16405;53.964;13.448;2022-12-29T15:44:41;99774.34;;;9.06;92.72
29433;BME280;16405;53.964;13.448;2022-12-29T15:47:26;99769.84;;;9.08;92.82
29433;BME280;16405;53.964;13.448;2022-12-29T15:50:25;99780.16;;;9.11;92.23